createdAt,value
2018-08-07T00:00:04.825Z,22.54
2018-08-07T00:01:04.826Z,22.63
2018-08-07T00:02:04.827Z,22.63
2018-08-07T00:03:04.827Z,22.60
2018-08-07T00:04:04.828Z,22.64
2018-08-07T00:05:04.828Z,22.63
2018-08-07T00:06:04.830Z,22.64
2018-08-07T00:07:04.830Z,22.66
2018-08-07T00:08:04.833Z,22.67
2018-08-07T00:09:04.831Z,22.79
2018-08-07T00:10:04.832Z,22.76
2018-08-07T00:11:04.832Z,22.70
2018-08-07T00:12:04.831Z,22.67
2018-08-07T00:13:04.833Z,22.75
2018-08-07T00:14:04.833Z,22.70
2018-08-07T00:15:04.833Z,22.66
2018-08-07T00:16:04.836Z,22.64
2018-08-07T00:17:04.835Z,22.63
2018-08-07T00:18:04.834Z,22.72
2018-08-07T00:19:04.834Z,22.59
2018-08-07T00:20:04.835Z,22.60
2018-08-07T00:21:04.839Z,22.61
2018-08-07T00:22:04.872Z,22.61
2018-08-07T00:23:04.837Z,22.42
2018-08-07T00:24:04.837Z,22.42
2018-08-07T00:25:04.838Z,22.38
2018-08-07T00:26:04.838Z,22.31
2018-08-07T00:27:04.840Z,22.33
2018-08-07T00:28:04.839Z,22.33
2018-08-07T00:29:04.839Z,22.21
2018-08-07T00:30:04.841Z,22.23
2018-08-07T00:31:04.839Z,22.12
2018-08-07T00:32:04.839Z,22.06
2018-08-07T00:33:04.839Z,22.09
2018-08-07T00:34:04.841Z,22.08
2018-08-07T00:35:04.841Z,21.94
2018-08-07T00:36:04.841Z,21.83
2018-08-07T00:37:04.841Z,21.75
2018-08-07T00:38:04.842Z,21.71
2018-08-07T00:39:04.844Z,21.63
2018-08-07T00:40:04.841Z,21.53
2018-08-07T00:41:04.842Z,21.61
2018-08-07T00:42:04.844Z,21.61
2018-08-07T00:43:04.843Z,21.58
2018-08-07T00:44:04.841Z,21.63
2018-08-07T00:45:04.842Z,21.63
2018-08-07T00:46:04.842Z,21.59
2018-08-07T00:47:04.843Z,21.56
2018-08-07T00:48:04.842Z,21.55
2018-08-07T00:49:04.843Z,21.56
2018-08-07T00:50:04.874Z,21.51
2018-08-07T00:51:04.844Z,21.56
2018-08-07T00:52:04.844Z,21.43
2018-08-07T00:53:04.844Z,21.56
2018-08-07T00:54:04.844Z,21.59
2018-08-07T00:55:04.843Z,21.58
2018-08-07T00:56:04.844Z,21.68
2018-08-07T00:57:04.845Z,21.66
2018-08-07T00:58:04.844Z,21.66
2018-08-07T00:59:04.845Z,21.75
2018-08-07T01:00:04.850Z,21.89
2018-08-07T01:01:04.844Z,21.89
2018-08-07T01:02:04.848Z,21.74
2018-08-07T01:03:04.844Z,21.77
2018-08-07T01:04:04.844Z,21.70
2018-08-07T01:05:04.845Z,21.71
2018-08-07T01:06:04.844Z,21.68
2018-08-07T01:07:04.848Z,21.61
2018-08-07T01:08:04.844Z,21.63
2018-08-07T01:09:04.844Z,21.61
2018-08-07T01:10:04.844Z,21.58
2018-08-07T01:11:04.845Z,21.59
2018-08-07T01:12:04.843Z,21.53
2018-08-07T01:13:04.844Z,21.58
2018-08-07T01:14:04.843Z,21.53
2018-08-07T01:15:04.846Z,21.46
2018-08-07T01:16:04.843Z,21.42
2018-08-07T01:17:04.843Z,21.37
2018-08-07T01:18:04.842Z,21.40
2018-08-07T01:19:04.844Z,21.31
2018-08-07T01:20:04.842Z,21.22
2018-08-07T01:21:04.843Z,21.13
2018-08-07T01:22:04.843Z,20.97
2018-08-07T01:23:04.843Z,21.03
2018-08-07T01:24:04.842Z,21.05
2018-08-07T01:25:04.842Z,21.01
2018-08-07T01:26:04.848Z,21.05
2018-08-07T01:27:04.903Z,20.91
2018-08-07T01:28:04.841Z,21.03
2018-08-07T01:29:04.841Z,21.08
2018-08-07T01:30:04.844Z,21.06
2018-08-07T01:31:04.841Z,21.01
2018-08-07T01:32:04.853Z,21.01
2018-08-07T01:33:04.841Z,21.05
2018-08-07T01:34:04.850Z,21.01
2018-08-07T01:35:04.841Z,20.90
2018-08-07T01:36:04.839Z,20.98
2018-08-07T01:37:04.838Z,20.94
2018-08-07T01:38:04.842Z,21.03
2018-08-07T01:39:04.839Z,21.05
2018-08-07T01:40:04.837Z,21.15
2018-08-07T01:41:04.838Z,21.06
2018-08-07T01:42:04.837Z,21.13
2018-08-07T01:43:04.837Z,21.21
2018-08-07T01:44:04.837Z,21.18
2018-08-07T01:45:04.837Z,21.15
2018-08-07T01:46:04.836Z,21.19
2018-08-07T01:47:04.838Z,21.09
2018-08-07T01:48:04.835Z,21.16
2018-08-07T01:49:04.835Z,21.16
2018-08-07T01:50:04.835Z,21.15
2018-08-07T01:51:04.834Z,21.06
2018-08-07T01:52:04.836Z,21.01
2018-08-07T01:53:04.833Z,20.94
2018-08-07T01:54:04.834Z,20.88
2018-08-07T01:55:04.833Z,20.81
2018-08-07T01:56:04.831Z,20.85
2018-08-07T01:57:04.830Z,20.83
2018-08-07T01:58:04.830Z,20.88
2018-08-07T01:59:04.832Z,20.76
2018-08-07T02:00:04.828Z,20.88
2018-08-07T02:01:04.829Z,20.73
2018-08-07T02:02:04.830Z,20.75
2018-08-07T02:03:04.834Z,20.73
2018-08-07T02:04:04.828Z,20.71
2018-08-07T02:05:04.828Z,20.50
2018-08-07T02:06:04.828Z,20.46
2018-08-07T02:07:04.828Z,20.50
2018-08-07T02:08:04.826Z,20.48
2018-08-07T02:09:04.826Z,20.44
2018-08-07T02:10:04.828Z,20.51
2018-08-07T02:11:04.826Z,20.46
2018-08-07T02:12:04.823Z,20.50
2018-08-07T02:13:04.823Z,20.50
2018-08-07T02:14:04.824Z,20.44
2018-08-07T02:15:04.823Z,20.56
2018-08-07T02:16:04.822Z,20.56
2018-08-07T02:17:04.821Z,20.58
2018-08-07T02:18:04.821Z,20.68
2018-08-07T02:19:04.820Z,20.64
2018-08-07T02:20:04.820Z,20.72
2018-08-07T02:21:04.820Z,20.64
2018-08-07T02:22:04.819Z,20.61
2018-08-07T02:23:04.818Z,20.71
2018-08-07T02:24:04.817Z,20.69
2018-08-07T02:25:04.816Z,20.82
2018-08-07T02:26:04.816Z,20.72
2018-08-07T02:27:04.816Z,20.83
2018-08-07T02:28:04.822Z,20.79
2018-08-07T02:29:04.865Z,20.96
2018-08-07T02:30:04.814Z,20.90
2018-08-07T02:31:04.813Z,20.97
2018-08-07T02:32:04.812Z,21.00
2018-08-07T02:33:04.811Z,21.00
2018-08-07T02:34:04.811Z,20.98
2018-08-07T02:35:04.817Z,21.05
2018-08-07T02:36:04.809Z,21.03
2018-08-07T02:37:04.808Z,21.09
2018-08-07T02:38:04.808Z,21.06
2018-08-07T02:39:04.808Z,21.00
2018-08-07T02:40:04.807Z,21.09
2018-08-07T02:41:04.807Z,21.18
2018-08-07T02:42:04.805Z,21.13
2018-08-07T02:43:04.807Z,21.15
2018-08-07T02:44:04.804Z,21.16
2018-08-07T02:45:04.803Z,21.13
2018-08-07T02:46:04.803Z,21.19
2018-08-07T02:47:04.803Z,21.08
2018-08-07T02:48:04.804Z,21.09
2018-08-07T02:49:04.801Z,21.00
2018-08-07T02:50:04.800Z,20.94
2018-08-07T02:51:04.800Z,20.91
2018-08-07T02:52:04.802Z,20.85
2018-08-07T02:53:04.798Z,20.96
2018-08-07T02:54:04.798Z,20.90
2018-08-07T02:55:04.798Z,20.87
2018-08-07T02:56:04.796Z,20.94
2018-08-07T02:57:04.794Z,20.93
2018-08-07T02:58:04.797Z,20.93
2018-08-07T02:59:04.796Z,20.96
2018-08-07T03:00:04.794Z,20.94
2018-08-07T03:01:04.793Z,20.94
2018-08-07T03:02:04.792Z,20.91
2018-08-07T03:03:04.792Z,20.98
2018-08-07T03:04:04.790Z,20.88
2018-08-07T03:05:04.790Z,20.87
2018-08-07T03:06:04.790Z,20.87
2018-08-07T03:07:04.791Z,20.88
2018-08-07T03:08:04.789Z,20.85
2018-08-07T03:09:04.787Z,20.73
2018-08-07T03:10:04.788Z,20.72
2018-08-07T03:11:04.787Z,20.68
2018-08-07T03:12:04.785Z,20.81
2018-08-07T03:13:04.784Z,20.75
2018-08-07T03:14:04.784Z,20.82
2018-08-07T03:15:04.783Z,20.81
2018-08-07T03:16:04.783Z,20.93
2018-08-07T03:17:04.782Z,21.15
2018-08-07T03:18:04.781Z,21.37
2018-08-07T03:19:04.781Z,21.45
2018-08-07T03:20:04.809Z,21.63
2018-08-07T03:21:04.783Z,21.68
2018-08-07T03:22:04.779Z,21.79
2018-08-07T03:23:04.779Z,21.82
2018-08-07T03:24:04.779Z,21.94
2018-08-07T03:25:04.775Z,21.96
2018-08-07T03:26:04.777Z,22.04
2018-08-07T03:27:04.776Z,22.11
2018-08-07T03:28:04.773Z,22.12
2018-08-07T03:29:04.772Z,22.24
2018-08-07T03:30:04.772Z,22.27
2018-08-07T03:31:04.771Z,22.19
2018-08-07T03:32:04.774Z,22.29
2018-08-07T03:33:04.770Z,22.23
2018-08-07T03:34:04.769Z,22.15
2018-08-07T03:35:04.769Z,22.12
2018-08-07T03:36:04.768Z,22.21
2018-08-07T03:37:04.767Z,22.17
2018-08-07T03:38:04.767Z,22.19
2018-08-07T03:39:04.770Z,22.08
2018-08-07T03:40:04.765Z,22.06
2018-08-07T03:41:04.764Z,22.01
2018-08-07T03:42:04.763Z,21.96
2018-08-07T03:43:04.763Z,21.91
2018-08-07T03:44:04.762Z,21.90
2018-08-07T03:45:04.765Z,21.99
2018-08-07T03:46:04.763Z,21.96
2018-08-07T03:47:04.762Z,21.96
2018-08-07T03:48:04.761Z,21.93
2018-08-07T03:49:04.760Z,21.94
2018-08-07T03:50:04.763Z,21.94
2018-08-07T03:51:04.760Z,21.99
2018-08-07T03:52:04.759Z,22.02
2018-08-07T03:53:04.814Z,21.94
2018-08-07T03:54:04.757Z,21.90
2018-08-07T03:55:04.757Z,21.91
2018-08-07T03:56:04.756Z,21.93
2018-08-07T03:57:04.754Z,21.93
2018-08-07T03:58:04.754Z,22.01
2018-08-07T03:59:04.802Z,22.01
2018-08-07T04:00:04.754Z,21.98
2018-08-07T04:01:04.753Z,22.05
2018-08-07T04:02:04.752Z,22.01
2018-08-07T04:03:04.752Z,22.01
2018-08-07T04:04:04.754Z,21.99
2018-08-07T04:05:04.789Z,22.05
2018-08-07T04:06:04.751Z,21.99
2018-08-07T04:07:04.750Z,21.91
2018-08-07T04:08:04.749Z,21.98
2018-08-07T04:09:04.748Z,21.98
2018-08-07T04:10:04.749Z,21.90
2018-08-07T04:11:04.748Z,21.91
2018-08-07T04:12:04.746Z,21.96
2018-08-07T04:13:04.746Z,21.86
2018-08-07T04:14:04.744Z,21.91
2018-08-07T04:15:04.746Z,21.83
2018-08-07T04:16:04.743Z,21.90
2018-08-07T04:17:04.743Z,21.91
2018-08-07T04:18:04.743Z,21.93
2018-08-07T04:19:04.743Z,21.96
2018-08-07T04:20:04.740Z,21.96
2018-08-07T04:21:04.744Z,21.93
2018-08-07T04:22:04.741Z,22.06
2018-08-07T04:23:04.740Z,22.08
2018-08-07T04:24:04.738Z,22.04
2018-08-07T04:25:04.738Z,22.02
2018-08-07T04:26:04.773Z,22.06
2018-08-07T04:27:04.737Z,22.06
2018-08-07T04:28:04.737Z,22.11
2018-08-07T04:29:04.737Z,22.12
2018-08-07T04:30:04.737Z,22.19
2018-08-07T04:31:04.736Z,22.24
2018-08-07T04:32:04.735Z,22.27
2018-08-07T04:33:04.735Z,22.27
2018-08-07T04:34:04.735Z,22.27
2018-08-07T04:35:04.734Z,22.29
2018-08-07T04:36:04.732Z,22.24
2018-08-07T04:37:04.732Z,22.30
2018-08-07T04:38:04.733Z,22.17
2018-08-07T04:39:04.733Z,22.17
2018-08-07T04:40:04.730Z,22.14
2018-08-07T04:41:04.730Z,22.11
2018-08-07T04:42:04.731Z,22.12
2018-08-07T04:43:04.731Z,22.08
2018-08-07T04:44:04.732Z,22.14
2018-08-07T04:45:04.730Z,22.17
2018-08-07T04:46:04.733Z,22.23
2018-08-07T04:47:04.729Z,22.35
2018-08-07T04:48:04.730Z,22.42
2018-08-07T04:49:04.729Z,22.46
2018-08-07T04:50:04.729Z,22.66
2018-08-07T04:51:04.729Z,22.74
2018-08-07T04:52:04.728Z,22.82
2018-08-07T04:53:04.729Z,22.96
2018-08-07T04:54:04.728Z,23.14
2018-08-07T04:55:04.730Z,23.34
2018-08-07T04:56:04.729Z,23.41
2018-08-07T04:57:04.731Z,23.74
2018-08-07T04:58:04.798Z,23.92
2018-08-07T04:59:04.731Z,24.04
2018-08-07T05:00:04.733Z,24.36
2018-08-07T05:01:04.734Z,24.64
2018-08-07T05:02:04.740Z,24.90
2018-08-07T05:03:04.736Z,25.04
2018-08-07T05:04:04.738Z,25.44
2018-08-07T05:05:04.739Z,25.74
2018-08-07T05:06:04.741Z,25.89
2018-08-07T05:07:04.742Z,26.20
2018-08-07T05:08:04.742Z,26.31
2018-08-07T05:09:04.746Z,26.56
2018-08-07T05:10:04.748Z,26.94
2018-08-07T05:11:04.753Z,26.86
2018-08-07T05:12:04.752Z,27.08
2018-08-07T05:13:04.756Z,27.33
2018-08-07T05:14:04.760Z,27.77
2018-08-07T05:15:04.762Z,28.20
2018-08-07T05:16:04.765Z,28.14
2018-08-07T05:17:04.769Z,28.45
2018-08-07T05:18:04.772Z,28.70
2018-08-07T05:19:04.776Z,28.72
2018-08-07T05:20:04.779Z,28.91
2018-08-07T05:21:04.781Z,29.15
2018-08-07T05:22:04.786Z,29.47
2018-08-07T05:23:04.790Z,29.57
2018-08-07T05:24:04.800Z,29.57
2018-08-07T05:25:04.798Z,29.58
2018-08-07T05:26:04.803Z,29.62
2018-08-07T05:27:04.808Z,29.67
2018-08-07T05:28:04.811Z,29.76
2018-08-07T05:29:04.817Z,29.85
2018-08-07T05:30:04.820Z,29.89
2018-08-07T05:31:04.829Z,29.76
2018-08-07T05:32:04.827Z,30.01
2018-08-07T05:33:04.833Z,29.73
2018-08-07T05:34:04.838Z,29.89
2018-08-07T05:35:04.849Z,30.37
2018-08-07T05:36:04.848Z,30.53
2018-08-07T05:37:04.854Z,30.90
2018-08-07T05:38:04.857Z,31.04
2018-08-07T05:39:04.863Z,31.23
2018-08-07T05:40:04.868Z,31.07
2018-08-07T05:41:04.874Z,31.53
2018-08-07T05:42:04.878Z,31.85
2018-08-07T05:43:04.885Z,32.32
2018-08-07T05:44:04.889Z,32.46
2018-08-07T05:45:04.896Z,32.51
2018-08-07T05:46:04.901Z,32.49
2018-08-07T05:47:04.907Z,32.96
2018-08-07T05:48:04.912Z,33.18
2018-08-07T05:49:04.917Z,33.68
2018-08-07T05:50:05.088Z,33.94
2018-08-07T05:51:05.446Z,34.24
2018-08-07T05:52:04.940Z,34.27
2018-08-07T05:53:04.946Z,34.42
2018-08-07T05:54:04.950Z,34.69
2018-08-07T05:55:05.010Z,35.09
2018-08-07T05:56:04.963Z,35.28
2018-08-07T05:57:04.970Z,35.29
2018-08-07T05:58:05.044Z,35.73
2018-08-07T05:59:04.985Z,35.91
2018-08-07T06:00:04.994Z,36.00
2018-08-07T06:01:05.062Z,36.12
2018-08-07T06:02:05.007Z,36.52
2018-08-07T06:03:05.020Z,36.75
2018-08-07T06:04:05.021Z,37.16
2018-08-07T06:05:05.029Z,37.43
2018-08-07T06:06:05.039Z,37.72
2018-08-07T06:07:05.045Z,37.75
2018-08-07T06:08:05.054Z,38.03
2018-08-07T06:09:05.063Z,37.82
2018-08-07T06:10:05.071Z,38.19
2018-08-07T06:11:05.079Z,38.52
2018-08-07T06:12:05.089Z,38.87
2018-08-07T06:13:05.098Z,39.13
2018-08-07T06:14:05.107Z,39.24
2018-08-07T06:15:05.118Z,39.41
2018-08-07T06:16:05.127Z,39.61
2018-08-07T06:17:05.135Z,39.31
2018-08-07T06:18:05.144Z,39.35
2018-08-07T06:19:05.190Z,39.06
2018-08-07T06:20:05.164Z,39.24
2018-08-07T06:21:05.178Z,39.41
2018-08-07T06:22:05.185Z,39.81
2018-08-07T06:23:05.195Z,39.84
2018-08-07T06:24:05.207Z,39.07
2018-08-07T06:25:05.218Z,39.39
2018-08-07T06:26:05.230Z,39.72
2018-08-07T06:27:05.240Z,39.27
2018-08-07T06:28:05.250Z,39.02
2018-08-07T06:29:05.263Z,39.43
2018-08-07T06:30:05.283Z,38.79
2018-08-07T06:31:05.285Z,38.71
2018-08-07T06:32:05.296Z,39.29
2018-08-07T06:33:05.308Z,39.46
2018-08-07T06:34:05.320Z,39.85
2018-08-07T06:35:05.332Z,39.59
2018-08-07T06:36:05.344Z,40.02
2018-08-07T06:37:05.359Z,40.24
2018-08-07T06:38:05.370Z,40.71
2018-08-07T06:39:05.383Z,40.13
2018-08-07T06:40:05.393Z,38.82
2018-08-07T06:41:05.407Z,38.87
2018-08-07T06:42:05.420Z,37.15
2018-08-07T06:43:05.568Z,36.87
2018-08-07T06:44:05.447Z,37.30
2018-08-07T06:45:05.457Z,36.37
2018-08-07T06:46:05.470Z,36.27
2018-08-07T06:47:05.485Z,36.37
2018-08-07T06:48:05.557Z,36.90
2018-08-07T06:49:05.512Z,36.49
2018-08-07T06:50:05.591Z,36.74
2018-08-07T06:51:05.537Z,36.50
2018-08-07T06:52:05.549Z,37.27
2018-08-07T06:53:05.563Z,37.75
2018-08-07T06:54:05.576Z,36.96
2018-08-07T06:55:05.590Z,37.43
2018-08-07T06:56:05.602Z,37.72
2018-08-07T06:57:05.623Z,36.87
2018-08-07T06:58:05.629Z,36.96
2018-08-07T06:59:05.643Z,36.96
2018-08-07T07:00:05.655Z,37.34
2018-08-07T07:01:05.669Z,36.82
2018-08-07T07:02:05.683Z,37.06
2018-08-07T07:03:05.698Z,37.11
2018-08-07T07:04:05.709Z,36.12
2018-08-07T07:05:05.724Z,35.93
2018-08-07T07:06:05.737Z,35.58
2018-08-07T07:07:05.751Z,36.74
2018-08-07T07:08:05.765Z,37.66
2018-08-07T07:09:05.779Z,37.95
2018-08-07T07:10:05.794Z,38.82
2018-08-07T07:11:05.808Z,39.39
2018-08-07T07:12:05.822Z,38.82
2018-08-07T07:13:05.836Z,37.80
2018-08-07T07:14:05.849Z,38.09
2018-08-07T07:15:05.869Z,38.72
2018-08-07T07:16:05.881Z,38.92
2018-08-07T07:17:05.892Z,38.81
2018-08-07T07:18:05.907Z,38.78
2018-08-07T07:19:05.921Z,38.37
2018-08-07T07:20:05.936Z,38.33
2018-08-07T07:21:05.951Z,38.44
2018-08-07T07:22:05.964Z,38.79
2018-08-07T07:23:05.980Z,39.43
2018-08-07T07:24:05.997Z,40.11
2018-08-07T07:25:06.012Z,40.42
2018-08-07T07:26:06.025Z,41.31
2018-08-07T07:27:06.041Z,41.67
2018-08-07T07:28:06.055Z,41.90
2018-08-07T07:29:06.074Z,42.38
2018-08-07T07:30:06.089Z,42.45
2018-08-07T07:31:06.103Z,41.28
2018-08-07T07:32:06.116Z,41.25
2018-08-07T07:33:06.131Z,40.49
2018-08-07T07:34:06.210Z,39.43
2018-08-07T07:35:06.163Z,38.65
2018-08-07T07:36:06.178Z,39.07
2018-08-07T07:37:06.194Z,39.19
2018-08-07T07:38:06.210Z,39.13
2018-08-07T07:39:06.231Z,38.81
2018-08-07T07:40:06.250Z,38.78
2018-08-07T07:41:06.262Z,38.18
2018-08-07T07:42:06.286Z,37.72
2018-08-07T07:43:06.299Z,37.62
2018-08-07T07:44:06.317Z,38.34
2018-08-07T07:45:06.333Z,38.63
2018-08-07T07:46:06.355Z,39.38
2018-08-07T07:47:06.405Z,39.32
2018-08-07T07:48:06.375Z,39.32
2018-08-07T07:49:06.390Z,40.00
2018-08-07T07:50:06.416Z,40.29
2018-08-07T07:51:06.428Z,39.97
2018-08-07T07:52:06.442Z,40.28
2018-08-07T07:53:06.456Z,39.70
2018-08-07T07:54:06.514Z,39.46
2018-08-07T07:55:06.494Z,39.90
2018-08-07T07:56:06.508Z,40.48
2018-08-07T07:57:06.526Z,40.03
2018-08-07T07:58:06.538Z,40.29
2018-08-07T07:59:06.556Z,40.88
2018-08-07T08:00:06.572Z,40.79
2018-08-07T08:01:06.590Z,41.60
2018-08-07T08:02:06.612Z,42.60
2018-08-07T08:03:06.626Z,43.26
2018-08-07T08:04:06.645Z,42.61
2018-08-07T08:05:06.709Z,42.99
2018-08-07T08:06:06.729Z,43.60
2018-08-07T08:07:06.692Z,43.67
2018-08-07T08:08:06.714Z,43.57
2018-08-07T08:09:06.731Z,44.31
2018-08-07T08:10:06.744Z,44.32
2018-08-07T08:11:06.818Z,44.73
2018-08-07T08:12:06.780Z,45.39
2018-08-07T08:13:06.800Z,45.82
2018-08-07T08:14:06.820Z,46.24
2018-08-07T08:15:06.839Z,46.31
2018-08-07T08:16:06.859Z,46.10
2018-08-07T08:17:06.876Z,46.45
2018-08-07T08:18:06.889Z,46.71
2018-08-07T08:19:06.908Z,46.93
2018-08-07T08:20:06.945Z,47.39
2018-08-07T08:21:06.946Z,46.77
2018-08-07T08:22:06.973Z,47.20
2018-08-07T08:23:06.989Z,47.88
2018-08-07T08:24:07.003Z,48.26
2018-08-07T08:25:07.021Z,48.66
2018-08-07T08:26:07.045Z,48.62
2018-08-07T08:27:07.066Z,47.46
2018-08-07T08:28:07.087Z,47.43
2018-08-07T08:29:07.129Z,47.28
2018-08-07T08:30:07.154Z,47.18
2018-08-07T08:31:07.139Z,47.72
2018-08-07T08:32:07.159Z,47.72
2018-08-07T08:33:07.179Z,47.51
2018-08-07T08:34:07.204Z,47.83
2018-08-07T08:35:07.318Z,47.98
2018-08-07T08:36:07.244Z,48.36
2018-08-07T08:37:07.271Z,48.74
2018-08-07T08:38:07.317Z,49.34
2018-08-07T08:39:07.300Z,49.08
2018-08-07T08:40:07.324Z,49.34
2018-08-07T08:41:07.346Z,48.54
2018-08-07T08:42:07.366Z,47.17
2018-08-07T08:43:07.383Z,46.26
2018-08-07T08:44:07.405Z,46.68
2018-08-07T08:45:07.425Z,46.36
2018-08-07T08:46:07.452Z,46.71
2018-08-07T08:47:07.474Z,46.29
2018-08-07T08:48:07.547Z,45.70
2018-08-07T08:49:07.518Z,45.34
2018-08-07T08:50:07.533Z,45.46
2018-08-07T08:51:07.553Z,45.77
2018-08-07T08:52:07.572Z,46.34
2018-08-07T08:53:07.592Z,46.91
2018-08-07T08:54:07.653Z,47.66
2018-08-07T08:55:07.639Z,48.42
2018-08-07T08:56:07.654Z,48.89
2018-08-07T08:57:07.674Z,48.86
2018-08-07T08:58:07.700Z,48.96
2018-08-07T08:59:07.720Z,49.49
2018-08-07T09:00:07.753Z,49.77
2018-08-07T09:01:07.764Z,49.62
2018-08-07T09:02:07.782Z,49.93
2018-08-07T09:03:07.801Z,49.21
2018-08-07T09:04:07.823Z,49.32
2018-08-07T09:05:07.849Z,49.66
2018-08-07T09:06:07.870Z,48.63
2018-08-07T09:07:07.891Z,48.73
2018-08-07T09:08:07.911Z,48.77
2018-08-07T09:09:07.934Z,49.16
2018-08-07T09:10:07.954Z,49.74
2018-08-07T09:11:07.972Z,49.88
2018-08-07T09:12:07.998Z,50.34
2018-08-07T09:13:08.024Z,50.76
2018-08-07T09:14:08.038Z,50.99
2018-08-07T09:15:08.059Z,51.01
2018-08-07T09:16:08.082Z,51.10
2018-08-07T09:17:08.104Z,50.77
2018-08-07T09:18:08.134Z,51.04
2018-08-07T09:19:08.156Z,49.46
2018-08-07T09:20:08.174Z,48.45
2018-08-07T09:21:08.200Z,48.28
2018-08-07T09:22:08.214Z,48.48
2018-08-07T09:23:08.237Z,48.19
2018-08-07T09:24:08.260Z,48.65
2018-08-07T09:25:08.283Z,48.38
2018-08-07T09:26:08.392Z,48.39
2018-08-07T09:27:08.332Z,48.85
2018-08-07T09:28:08.350Z,48.94
2018-08-07T09:29:08.373Z,49.01
2018-08-07T09:30:08.401Z,49.08
2018-08-07T09:31:08.423Z,49.31
2018-08-07T09:32:08.447Z,49.49
2018-08-07T09:33:08.469Z,49.88
2018-08-07T09:34:08.487Z,49.83
2018-08-07T09:35:08.509Z,50.18
2018-08-07T09:36:08.531Z,50.95
2018-08-07T09:37:08.554Z,51.33
2018-08-07T09:38:08.587Z,51.64
2018-08-07T09:39:08.603Z,51.30
2018-08-07T09:40:08.639Z,51.17
2018-08-07T09:41:08.650Z,50.39
2018-08-07T09:42:08.672Z,50.60
2018-08-07T09:43:08.698Z,50.55
2018-08-07T09:44:08.717Z,50.36
2018-08-07T09:45:08.741Z,48.88
2018-08-07T09:46:08.760Z,48.72
2018-08-07T09:47:08.782Z,47.69
2018-08-07T09:48:08.804Z,46.37
2018-08-07T09:49:08.827Z,45.77
2018-08-07T09:50:08.857Z,45.87
2018-08-07T09:51:08.879Z,45.80
2018-08-07T09:52:08.901Z,46.37
2018-08-07T09:53:08.922Z,46.79
2018-08-07T09:54:08.942Z,47.12
2018-08-07T09:55:08.964Z,47.36
2018-08-07T09:56:08.995Z,47.40
2018-08-07T09:57:09.008Z,46.96
2018-08-07T09:58:09.035Z,46.99
2018-08-07T09:59:09.060Z,47.27
2018-08-07T10:00:09.126Z,47.97
2018-08-07T10:01:09.099Z,48.53
2018-08-07T10:02:09.127Z,49.11
2018-08-07T10:03:09.148Z,47.81
2018-08-07T10:04:09.168Z,46.72
2018-08-07T10:05:09.211Z,47.46
2018-08-07T10:06:09.213Z,48.10
2018-08-07T10:07:09.232Z,48.86
2018-08-07T10:08:09.254Z,49.44
2018-08-07T10:09:09.278Z,49.97
2018-08-07T10:10:09.304Z,50.14
2018-08-07T10:11:09.327Z,49.40
2018-08-07T10:12:09.350Z,48.38
2018-08-07T10:13:09.374Z,49.16
2018-08-07T10:14:09.390Z,49.08
2018-08-07T10:15:09.414Z,48.62
2018-08-07T10:16:09.445Z,49.49
2018-08-07T10:17:09.465Z,49.94
2018-08-07T10:18:09.483Z,50.45
2018-08-07T10:19:09.506Z,49.59
2018-08-07T10:20:09.529Z,48.48
2018-08-07T10:21:09.553Z,49.46
2018-08-07T10:22:09.579Z,49.66
2018-08-07T10:23:09.634Z,50.12
2018-08-07T10:24:09.624Z,50.69
2018-08-07T10:25:09.648Z,51.20
2018-08-07T10:26:09.668Z,51.39
2018-08-07T10:27:09.693Z,51.64
2018-08-07T10:28:09.715Z,52.26
2018-08-07T10:29:09.738Z,52.26
2018-08-07T10:30:09.768Z,52.08
2018-08-07T10:31:09.790Z,52.04
2018-08-07T10:32:09.809Z,51.01
2018-08-07T10:33:09.834Z,50.55
2018-08-07T10:34:09.861Z,50.07
2018-08-07T10:35:09.964Z,50.36
2018-08-07T10:36:09.909Z,50.81
2018-08-07T10:37:09.932Z,51.08
2018-08-07T10:38:09.952Z,51.15
2018-08-07T10:39:09.976Z,50.03
2018-08-07T10:40:10.000Z,49.32
2018-08-07T10:41:10.102Z,49.99
2018-08-07T10:42:10.052Z,49.62
2018-08-07T10:43:10.133Z,48.82
2018-08-07T10:44:10.135Z,49.34
2018-08-07T10:45:10.121Z,49.18
2018-08-07T10:46:10.141Z,49.75
2018-08-07T10:47:10.163Z,50.22
2018-08-07T10:48:10.194Z,50.55
2018-08-07T10:49:10.215Z,50.18
2018-08-07T10:50:10.233Z,50.27
2018-08-07T10:51:10.258Z,50.57
2018-08-07T10:52:10.295Z,50.11
2018-08-07T10:53:10.303Z,50.91
2018-08-07T10:54:10.329Z,49.66
2018-08-07T10:55:10.354Z,47.62
2018-08-07T10:56:10.375Z,47.74
2018-08-07T10:57:10.400Z,48.65
2018-08-07T10:58:10.464Z,48.96
2018-08-07T10:59:10.440Z,48.53
2018-08-07T11:00:10.464Z,48.16
2018-08-07T11:01:10.486Z,47.06
2018-08-07T11:02:10.514Z,47.90
2018-08-07T11:03:10.537Z,46.75
2018-08-07T11:04:10.556Z,47.21
2018-08-07T11:05:10.584Z,47.94
2018-08-07T11:06:10.609Z,48.63
2018-08-07T11:07:10.631Z,48.76
2018-08-07T11:08:10.651Z,48.99
2018-08-07T11:09:10.673Z,49.30
2018-08-07T11:10:10.695Z,48.50
2018-08-07T11:11:10.715Z,47.24
2018-08-07T11:12:10.738Z,47.21
2018-08-07T11:13:10.760Z,48.20
2018-08-07T11:14:10.787Z,48.29
2018-08-07T11:15:10.815Z,48.36
2018-08-07T11:16:10.833Z,48.94
2018-08-07T11:17:10.856Z,49.47
2018-08-07T11:18:10.872Z,49.83
2018-08-07T11:19:10.898Z,49.71
2018-08-07T11:20:10.924Z,48.66
2018-08-07T11:21:10.944Z,48.69
2018-08-07T11:22:10.961Z,48.93
2018-08-07T11:23:10.984Z,48.67
2018-08-07T11:24:11.006Z,48.69
2018-08-07T11:25:11.029Z,46.17
2018-08-07T11:26:11.056Z,45.94
2018-08-07T11:27:11.077Z,45.56
2018-08-07T11:28:11.101Z,45.41
2018-08-07T11:29:11.120Z,45.32
2018-08-07T11:30:11.136Z,44.91
2018-08-07T11:31:11.158Z,44.74
2018-08-07T11:32:11.182Z,44.20
2018-08-07T11:33:11.200Z,43.55
2018-08-07T11:34:11.223Z,43.08
2018-08-07T11:35:11.245Z,42.52
2018-08-07T11:36:11.306Z,42.61
2018-08-07T11:37:11.274Z,42.65
2018-08-07T11:38:11.298Z,42.50
2018-08-07T11:39:11.318Z,42.26
2018-08-07T11:40:11.332Z,42.26
2018-08-07T11:41:11.349Z,42.21
2018-08-07T11:42:11.366Z,42.26
2018-08-07T11:43:11.377Z,42.26
2018-08-07T11:44:11.394Z,42.07
2018-08-07T11:45:11.413Z,41.83
2018-08-07T11:46:11.430Z,41.54
2018-08-07T11:47:11.444Z,41.62
2018-08-07T11:48:11.472Z,41.44
2018-08-07T11:49:11.474Z,41.47
2018-08-07T11:50:11.484Z,41.50
2018-08-07T11:51:11.502Z,41.23
2018-08-07T11:52:11.520Z,41.10
2018-08-07T11:53:11.531Z,41.17
2018-08-07T11:54:11.540Z,41.13
2018-08-07T11:55:11.558Z,41.01
2018-08-07T11:56:11.606Z,40.90
2018-08-07T11:57:11.580Z,40.73
2018-08-07T11:58:11.600Z,40.54
2018-08-07T11:59:11.613Z,40.61
2018-08-07T12:00:11.627Z,40.72
2018-08-07T12:01:11.636Z,40.72
2018-08-07T12:02:11.645Z,40.57
2018-08-07T12:03:11.660Z,40.64
2018-08-07T12:04:11.668Z,40.56
2018-08-07T12:05:11.681Z,40.45
2018-08-07T12:06:11.699Z,40.44
2018-08-07T12:07:11.709Z,40.46
2018-08-07T12:08:11.717Z,40.31
2018-08-07T12:09:11.729Z,40.24
2018-08-07T12:10:11.744Z,40.22
2018-08-07T12:11:11.760Z,40.18
2018-08-07T12:12:11.769Z,40.34
2018-08-07T12:13:11.779Z,40.34
2018-08-07T12:14:11.786Z,40.36
2018-08-07T12:15:11.797Z,40.36
2018-08-07T12:16:11.845Z,39.99
2018-08-07T12:17:11.821Z,40.11
2018-08-07T12:18:11.836Z,40.15
2018-08-07T12:19:11.847Z,40.15
2018-08-07T12:20:11.857Z,40.15
2018-08-07T12:21:11.868Z,40.06
2018-08-07T12:22:11.873Z,40.04
2018-08-07T12:23:11.885Z,39.84
2018-08-07T12:24:11.900Z,39.94
2018-08-07T12:25:11.910Z,39.92
2018-08-07T12:26:11.916Z,39.91
2018-08-07T12:27:11.927Z,39.97
2018-08-07T12:28:11.938Z,39.81
2018-08-07T12:29:11.948Z,39.62
2018-08-07T12:30:11.963Z,39.61
2018-08-07T12:31:11.974Z,39.65
2018-08-07T12:32:11.984Z,39.68
2018-08-07T12:33:12.000Z,39.65
2018-08-07T12:34:12.000Z,39.59
2018-08-07T12:35:12.093Z,39.66
2018-08-07T12:36:12.041Z,39.53
2018-08-07T12:37:12.031Z,39.59
2018-08-07T12:38:12.044Z,39.47
2018-08-07T12:39:12.055Z,39.54
2018-08-07T12:40:12.060Z,39.51
2018-08-07T12:41:12.075Z,39.54
2018-08-07T12:42:12.085Z,39.51
2018-08-07T12:43:12.094Z,39.44
2018-08-07T12:44:12.112Z,39.44
2018-08-07T12:45:12.115Z,39.47
2018-08-07T12:46:12.119Z,39.50
2018-08-07T12:47:12.130Z,39.44
2018-08-07T12:48:12.139Z,39.34
2018-08-07T12:49:12.148Z,39.29
2018-08-07T12:50:12.162Z,39.22
2018-08-07T12:51:12.172Z,38.52
2018-08-07T12:52:12.181Z,38.52